Time;durP1;ratioP1;P1;durP2;ratioP2;P2;SDS_P1;SDS_P2;PMS_P1;PMS_P2;Temp;Humidity;BMP_temperature;BMP_pressure;BME280_temperature;BME280_humidity;BME280_pressure;Samples;Min_cycle;Max_cycle;Signal;HPM_P1;HPM_P2
2022/10/03 00:02:24;;;;;;;6.03;2.67;;;9.80;99.90;;;;;;5022318;28;20450;-66
2022/10/03 00:05:23;;;;;;;4.57;2.57;;;9.70;99.90;;;;;;5028095;28;20602;-66
2022/10/03 00:08:17;;;;;;;7.30;2.80;;;9.70;99.90;;;;;;5031811;28;20455;-66
2022/10/03 00:10:48;;;;;;;6.37;2.37;;;9.60;99.90;;;;;;5031830;28;20413;-66
2022/10/03 00:13:24;;;;;;;4.37;2.57;;;9.50;99.90;;;;;;5012514;28;20424;-66
2022/10/03 00:15:52;;;;;;;4.40;2.50;;;9.40;99.90;;;;;;5029638;28;20461;-66
2022/10/03 00:18:33;;;;;;;5.93;2.70;;;9.40;99.90;;;;;;5037300;28;20416;-66
2022/10/03 00:21:29;;;;;;;7.83;2.67;;;9.30;99.90;;;;;;5048629;28;20447;-66
2022/10/03 00:24:20;;;;;;;5.37;2.40;;;9.20;99.90;;;;;;5044931;28;20446;-66
2022/10/03 00:27:04;;;;;;;6.17;2.40;;;9.20;99.90;;;;;;5023505;28;20413;-66
2022/10/03 00:29:49;;;;;;;4.53;2.43;;;9.20;99.90;;;;;;5046556;28;20431;-66
2022/10/03 00:32:15;;;;;;;3.10;1.90;;;9.20;99.90;;;;;;5036661;28;20421;-66
2022/10/03 00:34:43;;;;;;;6.33;3.27;;;9.10;99.90;;;;;;5039597;28;20462;-66
2022/10/03 00:37:27;;;;;;;3.80;2.47;;;9.10;99.90;;;;;;5051872;28;20247;-65
2022/10/03 00:40:24;;;;;;;5.97;2.97;;;9.10;99.90;;;;;;5032196;28;20421;-65
2022/10/03 00:43:27;;;;;;;7.50;3.00;;;9.10;99.90;;;;;;5030089;28;20455;-66
2022/10/03 00:46:10;;;;;;;2.90;1.90;;;9.10;99.90;;;;;;5040878;28;20521;-65
2022/10/03 00:49:00;;;;;;;4.17;2.13;;;9.10;99.90;;;;;;5040181;28;20419;-66
2022/10/03 00:51:47;;;;;;;4.07;2.07;;;9.00;99.90;;;;;;5047224;28;20489;-66
2022/10/03 00:54:36;;;;;;;5.63;2.20;;;9.00;99.90;;;;;;5053867;28;20420;-66
2022/10/03 00:57:27;;;;;;;4.03;1.93;;;8.90;99.90;;;;;;5049773;28;20466;-66
2022/10/03 00:59:52;;;;;;;5.30;2.40;;;8.80;99.90;;;;;;5039225;28;20425;-66
2022/10/03 01:02:52;;;;;;;10.13;2.37;;;8.80;99.90;;;;;;5045002;28;20420;-66
2022/10/03 01:05:30;;;;;;;5.10;2.67;;;8.80;99.90;;;;;;5037574;28;20196;-66
2022/10/03 01:08:14;;;;;;;5.57;2.17;;;8.70;99.90;;;;;;5038597;28;20989;-66
2022/10/03 01:10:52;;;;;;;4.10;2.10;;;8.60;99.90;;;;;;5025342;28;20417;-66
2022/10/03 01:13:43;;;;;;;4.03;2.30;;;8.50;99.90;;;;;;5040820;28;20420;-66
2022/10/03 01:16:30;;;;;;;4.70;2.23;;;8.50;99.90;;;;;;5045568;28;20479;-66
2022/10/03 01:19:27;;;;;;;3.20;1.93;;;8.50;99.90;;;;;;5025472;28;20736;-66
2022/10/03 01:21:56;;;;;;;7.57;2.30;;;8.50;99.90;;;;;;5051517;28;20492;-66
2022/10/03 01:24:41;;;;;;;4.17;2.63;;;8.50;99.90;;;;;;5052828;28;20436;-66
2022/10/03 01:27:12;;;;;;;4.17;2.87;;;8.50;99.90;;;;;;5025692;28;20417;-66
2022/10/03 01:32:56;;;;;;;4.30;2.33;;;8.70;99.90;;;;;;5051252;28;20426;-66
2022/10/03 01:35:41;;;;;;;5.10;2.73;;;8.70;99.90;;;;;;5046435;28;20456;-66
2022/10/03 01:38:24;;;;;;;7.57;2.97;;;8.80;99.90;;;;;;5043305;28;20432;-66
2022/10/03 01:41:05;;;;;;;6.40;3.00;;;8.80;99.90;;;;;;5047178;28;20531;-66
2022/10/03 01:43:46;;;;;;;3.90;1.50;;;8.90;99.90;;;;;;5042768;28;20417;-66
2022/10/03 01:46:21;;;;;;;4.97;2.53;;;9.00;99.90;;;;;;5035081;28;20421;-65
2022/10/03 01:48:59;;;;;;;6.83;2.90;;;9.00;99.90;;;;;;5047860;28;20458;-66
2022/10/03 01:51:54;;;;;;;2.80;1.93;;;9.00;99.90;;;;;;5041309;28;20424;-66
2022/10/03 01:54:28;;;;;;;3.53;2.00;;;9.00;99.90;;;;;;5023983;28;20445;-65
2022/10/03 01:57:03;;;;;;;5.33;2.23;;;9.00;99.90;;;;;;5050172;28;20470;-65
2022/10/03 01:59:47;;;;;;;4.37;2.23;;;9.00;99.90;;;;;;5052242;28;20437;-65
2022/10/03 02:02:35;;;;;;;4.00;2.40;;;9.00;99.90;;;;;;5027421;28;21806;-65
2022/10/03 02:05:15;;;;;;;5.10;2.27;;;8.90;99.90;;;;;;5042812;28;20432;-65
2022/10/03 02:08:05;;;;;;;7.80;2.30;;;8.80;99.90;;;;;;5028387;28;20674;-65
2022/10/03 02:10:39;;;;;;;4.50;2.73;;;8.70;99.90;;;;;;5047591;28;20491;-65
2022/10/03 02:13:27;;;;;;;3.57;2.20;;;8.70;99.90;;;;;;5044773;28;20425;-66
2022/10/03 02:16:12;;;;;;;4.30;2.90;;;8.60;99.90;;;;;;5046861;28;20508;-65
2022/10/03 02:18:56;;;;;;;4.07;2.47;;;8.60;99.90;;;;;;5029642;28;20476;-65
2022/10/03 02:21:25;;;;;;;3.93;2.03;;;8.60;99.90;;;;;;5052290;28;20428;-65
2022/10/03 02:24:19;;;;;;;4.60;2.67;;;8.60;99.90;;;;;;5048474;28;20428;-65
2022/10/03 02:27:10;;;;;;;6.60;2.67;;;8.60;99.90;;;;;;5053281;28;20463;-65
2022/10/03 02:30:02;;;;;;;5.20;2.63;;;8.60;99.90;;;;;;5027329;28;20420;-65
2022/10/03 02:32:49;;;;;;;5.30;3.17;;;8.70;99.90;;;;;;5002171;28;20966;-65
2022/10/03 02:35:36;;;;;;;4.77;2.77;;;8.70;99.90;;;;;;5052966;28;20486;-65
2022/10/03 02:38:17;;;;;;;6.23;3.17;;;8.80;99.90;;;;;;5024346;28;20487;-65
2022/10/03 02:40:42;;;;;;;12.63;3.93;;;8.90;99.90;;;;;;5052107;28;20480;-65
2022/10/03 02:43:17;;;;;;;8.37;4.60;;;9.00;99.90;;;;;;5052724;28;20490;-65
2022/10/03 02:46:10;;;;;;;12.10;5.20;;;9.00;99.90;;;;;;5027063;28;20533;-65
2022/10/03 02:48:58;;;;;;;9.67;4.73;;;9.10;99.90;;;;;;5048177;28;20498;-65
2022/10/03 02:51:32;;;;;;;8.10;4.70;;;9.10;99.90;;;;;;5052400;28;20804;-65
2022/10/03 02:54:24;;;;;;;10.17;4.50;;;9.10;99.90;;;;;;5052747;28;20455;-65
2022/10/03 02:56:53;;;;;;;13.90;5.33;;;9.10;99.90;;;;;;5052592;28;20996;-65
2022/10/03 02:59:50;;;;;;;10.90;5.57;;;9.10;99.90;;;;;;5051609;28;20417;-65
2022/10/03 03:02:54;;;;;;;14.13;5.10;;;9.10;99.90;;;;;;5033029;28;20846;-65
2022/10/03 03:05:40;;;;;;;12.83;5.00;;;9.10;99.90;;;;;;4962956;28;20969;-65
2022/10/03 03:08:20;;;;;;;6.90;4.00;;;9.10;99.90;;;;;;5034687;28;20506;-65
2022/10/03 03:11:20;;;;;;;10.07;5.30;;;9.10;99.90;;;;;;5040989;28;20432;-65
2022/10/03 03:14:29;;;;;;;8.43;4.93;;;9.10;99.90;;;;;;5042806;28;20424;-65
2022/10/03 03:17:36;;;;;;;18.20;4.77;;;9.10;99.90;;;;;;4963809;28;20531;-65
2022/10/03 03:20:32;;;;;;;11.17;6.17;;;9.10;99.90;;;;;;4971059;28;20427;-65
2022/10/03 03:23:20;;;;;;;15.60;6.70;;;9.20;99.90;;;;;;5036379;28;20432;-65
2022/10/03 03:26:19;;;;;;;17.60;6.43;;;9.20;99.90;;;;;;5037577;28;20471;-65
2022/10/03 03:28:54;;;;;;;18.50;8.37;;;9.20;99.90;;;;;;5037337;28;20777;-65
2022/10/03 03:31:35;;;;;;;10.37;6.37;;;9.30;99.90;;;;;;5046775;28;20511;-65
2022/10/03 03:34:08;;;;;;;15.80;6.97;;;9.30;99.90;;;;;;5050901;28;20416;-65
2022/10/03 03:37:08;;;;;;;21.20;6.33;;;9.40;99.90;;;;;;5039220;28;20464;-65
2022/10/03 03:39:53;;;;;;;17.23;6.90;;;9.40;99.90;;;;;;5038358;28;20539;-65
2022/10/03 03:42:41;;;;;;;13.17;7.20;;;9.40;99.90;;;;;;5033776;28;20435;-65
2022/10/03 03:45:24;;;;;;;13.03;5.83;;;9.40;99.90;;;;;;5048787;28;20413;-65
2022/10/03 03:48:14;;;;;;;9.60;4.83;;;9.40;99.90;;;;;;5050772;28;20428;-65
2022/10/03 03:50:58;;;;;;;10.17;5.80;;;9.40;99.90;;;;;;5031445;28;20417;-65
2022/10/03 03:53:56;;;;;;;10.37;5.80;;;9.40;99.90;;;;;;5050617;28;20923;-65
2022/10/03 03:56:46;;;;;;;16.97;5.10;;;9.40;99.90;;;;;;5039558;28;20503;-65
2022/10/03 03:59:22;;;;;;;18.03;5.17;;;9.40;99.90;;;;;;5028167;28;20420;-65
2022/10/03 04:02:05;;;;;;;11.70;6.10;;;9.40;99.90;;;;;;5036276;28;20533;-65
2022/10/03 04:04:55;;;;;;;18.97;7.13;;;9.40;99.90;;;;;;5046579;28;20890;-65
2022/10/03 04:07:26;;;;;;;14.80;6.13;;;9.30;99.90;;;;;;5041350;28;20417;-65
2022/10/03 04:10:20;;;;;;;8.53;5.13;;;9.30;99.90;;;;;;5040511;28;21183;-65
2022/10/03 04:13:17;;;;;;;10.33;5.07;;;9.30;99.90;;;;;;5030877;28;20436;-65
2022/10/03 04:16:01;;;;;;;5.90;4.07;;;9.20;99.90;;;;;;5033761;28;20676;-65
2022/10/03 04:18:58;;;;;;;11.70;3.30;;;9.20;99.90;;;;;;5040346;28;20412;-65
2022/10/03 04:21:42;;;;;;;4.20;2.47;;;9.20;99.90;;;;;;5051300;28;20493;-65
2022/10/03 04:24:26;;;;;;;13.23;3.10;;;9.10;99.90;;;;;;5054386;28;20412;-65
2022/10/03 04:26:58;;;;;;;10.10;2.40;;;9.10;99.90;;;;;;5033964;28;20420;-66
2022/10/03 04:29:39;;;;;;;4.00;2.50;;;9.10;99.90;;;;;;5053599;28;20420;-66
2022/10/03 04:32:11;;;;;;;13.23;3.70;;;9.00;99.90;;;;;;5055167;28;20427;-66
2022/10/03 04:34:45;;;;;;;7.13;3.27;;;9.10;99.90;;;;;;5055280;28;20432;-66
2022/10/03 04:37:15;;;;;;;15.03;3.73;;;9.10;99.90;;;;;;5051971;28;20475;-66
2022/10/03 04:40:03;;;;;;;10.50;3.10;;;9.10;99.90;;;;;;5055366;28;20432;-66
2022/10/03 04:42:50;;;;;;;13.43;4.33;;;9.10;99.90;;;;;;5054949;28;20448;-66
2022/10/03 04:45:34;;;;;;;16.90;5.87;;;9.00;99.90;;;;;;5054546;28;20422;-67
2022/10/03 04:48:16;;;;;;;14.50;5.20;;;9.00;99.90;;;;;;5039769;28;20458;-66
2022/10/03 04:50:56;;;;;;;12.63;4.97;;;9.10;99.90;;;;;;5055216;28;20416;-66
2022/10/03 04:53:51;;;;;;;9.10;4.60;;;9.10;99.90;;;;;;5054692;28;20429;-66
2022/10/03 04:56:25;;;;;;;12.33;4.17;;;9.10;99.90;;;;;;5035350;28;20574;-66
2022/10/03 04:59:28;;;;;;;22.57;3.87;;;9.20;99.90;;;;;;5053933;28;20415;-65
2022/10/03 05:02:18;;;;;;;7.60;3.73;;;9.20;99.90;;;;;;5045139;28;20423;-66
2022/10/03 05:05:03;;;;;;;8.33;3.97;;;9.20;99.90;;;;;;5049935;28;20433;-66
2022/10/03 05:07:40;;;;;;;10.73;3.53;;;9.20;99.90;;;;;;5035238;28;20413;-66
2022/10/03 05:10:38;;;;;;;6.60;3.87;;;9.20;99.90;;;;;;5031531;28;20784;-66
2022/10/03 05:13:41;;;;;;;10.60;3.83;;;9.20;99.90;;;;;;5052965;28;20477;-66
2022/10/03 05:16:12;;;;;;;14.37;3.73;;;9.10;99.90;;;;;;5051095;28;20464;-66
2022/10/03 05:19:12;;;;;;;7.50;3.90;;;9.10;99.90;;;;;;5036845;28;20425;-65
2022/10/03 05:21:49;;;;;;;12.13;3.37;;;9.00;99.90;;;;;;5035687;28;21100;-66
2022/10/03 05:24:44;;;;;;;7.10;4.17;;;9.00;99.90;;;;;;5054303;28;20710;-65
2022/10/03 05:27:28;;;;;;;16.33;4.23;;;9.00;99.90;;;;;;5050699;28;20429;-66
2022/10/03 05:30:17;;;;;;;9.13;4.10;;;9.00;99.90;;;;;;5050683;28;20440;-65
2022/10/03 05:33:24;;;;;;;12.63;3.60;;;8.90;99.90;;;;;;5030482;28;20458;-66
2022/10/03 05:36:22;;;;;;;6.73;4.00;;;9.10;99.90;;;;;;5054125;28;20545;-65
2022/10/03 05:39:00;;;;;;;8.17;4.87;;;9.10;99.90;;;;;;5040729;28;20914;-66
2022/10/03 05:41:32;;;;;;;13.40;3.90;;;9.10;99.90;;;;;;5054046;28;20443;-65
2022/10/03 05:44:07;;;;;;;9.47;4.77;;;9.10;99.90;;;;;;5048450;28;20451;-66
2022/10/03 05:46:51;;;;;;;12.07;5.17;;;9.10;99.90;;;;;;5048283;28;20772;-65
2022/10/03 05:49:16;;;;;;;14.30;5.93;;;9.10;99.90;;;;;;5054102;28;20428;-65
2022/10/03 05:51:45;;;;;;;16.87;5.23;;;9.10;99.90;;;;;;5053514;28;20480;-65
2022/10/03 05:54:26;;;;;;;15.20;5.73;;;9.20;99.90;;;;;;5053168;28;20190;-64
2022/10/03 05:56:51;;;;;;;6.90;4.30;;;9.20;99.90;;;;;;5036181;28;20463;-65
2022/10/03 05:59:17;;;;;;;9.57;4.70;;;9.20;99.90;;;;;;5038369;28;20431;-65
2022/10/03 06:01:58;;;;;;;20.87;5.90;;;9.30;99.90;;;;;;5053004;28;20192;-65
2022/10/03 06:04:52;;;;;;;11.53;5.93;;;9.30;99.90;;;;;;5052301;28;20208;-65
2022/10/03 06:07:20;;;;;;;10.70;5.07;;;9.30;99.90;;;;;;5022322;28;20440;-65
2022/10/03 06:10:24;;;;;;;19.80;5.50;;;9.40;99.90;;;;;;5051729;28;20527;-65
2022/10/03 06:13:10;;;;;;;13.17;5.37;;;9.40;99.90;;;;;;5053196;28;20424;-65
2022/10/03 06:15:37;;;;;;;10.90;5.40;;;9.30;99.90;;;;;;5049776;28;20472;-65
2022/10/03 06:18:17;;;;;;;7.40;4.17;;;9.30;99.90;;;;;;5045225;28;20431;-65
2022/10/03 06:21:15;;;;;;;9.17;4.93;;;9.30;99.90;;;;;;5052798;28;20787;-65
2022/10/03 06:23:43;;;;;;;13.17;6.50;;;9.40;99.90;;;;;;5046794;28;20424;-66
2022/10/03 06:26:35;;;;;;;10.63;4.97;;;9.40;99.90;;;;;;5042543;28;20420;-66
2022/10/03 06:29:42;;;;;;;9.57;5.00;;;9.40;99.90;;;;;;5041592;28;20430;-66
2022/10/03 06:32:24;;;;;;;11.73;5.90;;;9.50;99.90;;;;;;5039732;28;20481;-66
2022/10/03 06:35:08;;;;;;;10.70;4.90;;;9.50;99.90;;;;;;5053324;28;20454;-66
2022/10/03 06:37:52;;;;;;;9.37;4.43;;;9.60;99.90;;;;;;5027106;28;20428;-66
2022/10/03 06:40:42;;;;;;;11.00;6.07;;;9.60;99.90;;;;;;5053023;28;21397;-66
2022/10/03 06:43:08;;;;;;;10.27;5.43;;;9.60;99.90;;;;;;5052700;28;20910;-65
2022/10/03 06:46:19;;;;;;;17.30;8.03;;;9.70;99.90;;;;;;5035792;28;20899;-66
2022/10/03 06:49:06;;;;;;;21.70;5.47;;;9.70;99.90;;;;;;5051809;28;20420;-66
2022/10/03 06:51:50;;;;;;;17.13;6.30;;;9.70;99.90;;;;;;5052483;28;20416;-66
2022/10/03 06:54:53;;;;;;;28.23;6.40;;;9.80;99.90;;;;;;5052785;28;20903;-65
2022/10/03 06:57:29;;;;;;;15.20;6.73;;;10.00;99.90;;;;;;5041748;28;20943;-66
2022/10/03 07:00:14;;;;;;;19.37;6.40;;;10.10;99.90;;;;;;5046838;28;20446;-66
2022/10/03 07:03:08;;;;;;;14.00;7.43;;;10.20;99.90;;;;;;5051748;28;20924;-65
2022/10/03 07:06:07;;;;;;;13.27;7.70;;;10.20;99.90;;;;;;5050784;28;20420;-65
2022/10/03 07:08:36;;;;;;;18.93;8.50;;;10.30;99.90;;;;;;5045500;28;20435;-66
2022/10/03 07:11:30;;;;;;;17.17;8.37;;;10.40;99.90;;;;;;5052311;28;20416;-65
2022/10/03 07:14:18;;;;;;;15.00;7.63;;;10.50;99.90;;;;;;5051535;28;20432;-66
2022/10/03 07:16:53;;;;;;;17.37;7.30;;;10.60;99.90;;;;;;5024413;28;20484;-65
2022/10/03 07:19:19;;;;;;;22.37;7.37;;;10.50;99.90;;;;;;5035048;28;20407;-65
2022/10/03 07:22:07;;;;;;;19.20;8.40;;;10.50;99.90;;;;;;5046243;28;20420;-66
2022/10/03 07:25:20;;;;;;;11.23;6.83;;;10.50;99.90;;;;;;5051879;28;20412;-65
2022/10/03 07:28:24;;;;;;;10.90;6.30;;;10.50;99.90;;;;;;5043000;28;20957;-66
2022/10/03 07:31:26;;;;;;;21.30;5.70;;;10.50;99.90;;;;;;5038460;28;20405;-65
2022/10/03 07:34:29;;;;;;;15.63;6.67;;;10.40;99.90;;;;;;5036574;28;20412;-66
2022/10/03 07:40:17;;;;;;;18.07;7.87;;;10.40;99.90;;;;;;5048112;28;20415;-65
2022/10/03 07:42:59;;;;;;;12.07;6.30;;;10.40;99.90;;;;;;5042590;28;20439;-66
2022/10/03 07:45:33;;;;;;;12.37;7.17;;;10.40;99.90;;;;;;5029673;28;20423;-64
2022/10/03 07:48:36;;;;;;;17.67;8.73;;;10.30;99.90;;;;;;5051604;28;21194;-64
2022/10/03 07:51:12;;;;;;;12.60;6.43;;;10.30;99.90;;;;;;5051657;28;20507;-65
2022/10/03 07:53:49;;;;;;;15.17;8.17;;;10.20;99.90;;;;;;5051527;28;20924;-65
2022/10/03 07:56:42;;;;;;;20.07;9.50;;;10.20;99.90;;;;;;5051700;28;20542;-66
2022/10/03 07:59:37;;;;;;;14.53;7.37;;;10.20;99.90;;;;;;5040209;28;20412;-65
2022/10/03 08:02:21;;;;;;;18.07;7.87;;;10.20;99.90;;;;;;5050820;28;20439;-64
2022/10/03 08:05:12;;;;;;;14.87;6.63;;;10.20;99.90;;;;;;5021542;28;20409;-65
2022/10/03 08:08:08;;;;;;;12.97;7.47;;;10.10;99.90;;;;;;5041640;28;20479;-65
2022/10/03 08:11:13;;;;;;;12.17;6.30;;;10.20;99.90;;;;;;5049415;28;20894;-64
2022/10/03 08:14:20;;;;;;;18.73;7.40;;;10.20;99.90;;;;;;5050136;28;20427;-65
2022/10/03 08:17:12;;;;;;;23.00;8.27;;;10.20;99.90;;;;;;5040167;28;20491;-65
2022/10/03 08:19:40;;;;;;;27.50;8.60;;;10.20;99.90;;;;;;5051210;28;20473;-65
2022/10/03 08:22:26;;;;;;;14.87;7.63;;;10.20;99.90;;;;;;5050604;28;20408;-65
2022/10/03 08:25:18;;;;;;;19.40;6.23;;;10.20;99.90;;;;;;5036069;28;20420;-66
2022/10/03 08:28:03;;;;;;;20.97;6.80;;;10.20;99.90;;;;;;5049104;28;20424;-66
2022/10/03 08:30:29;;;;;;;19.63;6.70;;;10.20;99.90;;;;;;5033257;28;20507;-66
2022/10/03 08:33:07;;;;;;;19.57;7.77;;;10.30;99.90;;;;;;5044349;28;20874;-66
2022/10/03 08:36:03;;;;;;;20.00;8.10;;;10.30;99.90;;;;;;5040978;28;20201;-66
2022/10/03 08:38:38;;;;;;;18.03;8.10;;;10.30;99.90;;;;;;5030359;28;20983;-66
2022/10/03 08:41:35;;;;;;;14.90;7.93;;;10.30;99.90;;;;;;5045736;28;20994;-66
2022/10/03 08:44:31;;;;;;;14.20;6.20;;;10.40;99.90;;;;;;5041463;28;20447;-66
2022/10/03 08:47:25;;;;;;;14.93;7.57;;;10.40;99.90;;;;;;5042570;28;20463;-66
2022/10/03 08:50:21;;;;;;;15.70;8.13;;;10.50;99.90;;;;;;5027061;28;20467;-66
2022/10/03 08:53:02;;;;;;;18.73;8.57;;;10.60;99.90;;;;;;5048308;28;20448;-66
2022/10/03 08:55:44;;;;;;;12.00;7.17;;;10.70;99.90;;;;;;5044727;28;20514;-66
2022/10/03 08:58:49;;;;;;;15.60;7.10;;;10.80;99.90;;;;;;5037131;28;20510;-66
2022/10/03 09:01:35;;;;;;;18.57;5.90;;;10.80;99.90;;;;;;4951140;28;20445;-66
2022/10/03 09:04:16;;;;;;;12.80;6.60;;;11.00;99.90;;;;;;5038837;28;20409;-66
2022/10/03 09:07:09;;;;;;;14.80;6.43;;;11.10;99.90;;;;;;5028425;28;20470;-66
2022/10/03 09:10:01;;;;;;;10.20;6.37;;;11.30;99.90;;;;;;5025075;28;20797;-66
2022/10/03 09:12:32;;;;;;;17.17;5.70;;;11.40;99.90;;;;;;4992742;28;20567;-66
2022/10/03 09:15:35;;;;;;;12.33;5.93;;;11.50;99.90;;;;;;5034198;28;20554;-66
2022/10/03 09:18:20;;;;;;;12.00;6.80;;;11.60;99.90;;;;;;5034161;28;20425;-66
2022/10/03 09:20:46;;;;;;;10.97;5.47;;;11.60;99.90;;;;;;5032930;28;20442;-66
2022/10/03 09:23:44;;;;;;;11.03;5.50;;;11.60;99.90;;;;;;5034096;28;20417;-66
2022/10/03 09:26:34;;;;;;;17.97;5.97;;;11.60;99.90;;;;;;5021365;28;20179;-66
2022/10/03 09:29:33;;;;;;;11.57;4.60;;;11.70;99.90;;;;;;5034040;28;20412;-66
2022/10/03 09:32:38;;;;;;;24.67;4.90;;;11.90;99.90;;;;;;5037213;28;20917;-66
2022/10/03 09:35:37;;;;;;;13.43;4.67;;;12.10;99.90;;;;;;5047161;28;20515;-66
2022/10/03 09:38:21;;;;;;;6.10;3.90;;;12.30;99.90;;;;;;5044244;28;20432;-65
2022/10/03 09:40:56;;;;;;;7.93;4.30;;;12.50;99.90;;;;;;5054127;28;20436;-66
2022/10/03 09:43:52;;;;;;;9.93;5.13;;;12.60;99.90;;;;;;5048813;28;20801;-66
2022/10/03 09:46:26;;;;;;;8.80;3.40;;;13.00;99.90;;;;;;5054037;28;20407;-66
2022/10/03 09:49:20;;;;;;;10.70;4.23;;;13.10;99.90;;;;;;5049973;28;20420;-65
2022/10/03 09:52:21;;;;;;;14.07;4.80;;;13.20;99.90;;;;;;5040748;28;20412;-65
2022/10/03 09:55:22;;;;;;;8.70;5.30;;;13.00;99.90;;;;;;4963956;28;20426;-65
2022/10/03 09:58:16;;;;;;;9.97;4.20;;;12.90;99.90;;;;;;5041759;28;20424;-66
2022/10/03 10:01:01;;;;;;;10.00;3.90;;;12.70;99.90;;;;;;5049647;28;20522;-66
2022/10/03 10:03:45;;;;;;;5.17;3.80;;;12.50;99.90;;;;;;5029647;28;20507;-65
2022/10/03 10:06:19;;;;;;;6.93;4.17;;;12.40;99.90;;;;;;5031201;28;20425;-65
2022/10/03 10:09:11;;;;;;;6.33;3.80;;;12.40;99.90;;;;;;5029594;28;20452;-65
2022/10/03 10:11:59;;;;;;;16.27;5.10;;;12.40;99.90;;;;;;5030384;28;20424;-65
2022/10/03 10:14:43;;;;;;;7.17;3.80;;;12.40;99.90;;;;;;5016722;28;20451;-64
2022/10/03 10:17:36;;;;;;;9.10;4.30;;;12.40;99.90;;;;;;5038648;28;20548;-65
2022/10/03 10:20:10;;;;;;;6.60;4.57;;;12.40;99.90;;;;;;5031808;28;20939;-65
2022/10/03 10:23:03;;;;;;;18.73;3.83;;;12.30;99.90;;;;;;5027185;28;20425;-64
2022/10/03 10:26:22;;;;;;;9.73;3.97;;;12.40;99.90;;;;;;5023234;28;20444;-65
2022/10/03 10:28:47;;;;;;;17.73;3.50;;;12.40;99.90;;;;;;4926278;29;21022;-65
2022/10/03 10:31:43;;;;;;;7.97;3.60;;;12.80;99.90;;;;;;4935276;29;20474;-65
2022/10/03 10:34:37;;;;;;;4.93;2.80;;;13.30;99.90;;;;;;5005881;28;20585;-65
2022/10/03 10:37:08;;;;;;;6.33;2.80;;;13.50;99.90;;;;;;5034079;28;20517;-65
2022/10/03 10:39:53;;;;;;;10.00;2.90;;;13.50;99.90;;;;;;5025389;28;20440;-65
2022/10/03 10:42:57;;;;;;;6.60;2.93;;;13.50;99.90;;;;;;5032555;28;20798;-65
2022/10/03 10:46:05;;;;;;;10.50;3.00;;;13.40;99.90;;;;;;5004536;28;20802;-65
2022/10/03 10:48:49;;;;;;;4.80;2.43;;;13.40;99.90;;;;;;5036556;28;20413;-65
2022/10/03 10:51:37;;;;;;;9.17;3.50;;;13.60;99.90;;;;;;5031781;28;20436;-65
2022/10/03 10:54:40;;;;;;;14.33;4.63;;;13.90;99.90;;;;;;5039170;28;20539;-65
2022/10/03 10:57:28;;;;;;;6.50;2.77;;;14.30;99.90;;;;;;5014383;28;20514;-65
2022/10/03 11:00:11;;;;;;;6.00;3.17;;;14.60;99.90;;;;;;5036645;28;20453;-65
2022/10/03 11:02:58;;;;;;;9.40;2.87;;;14.70;99.90;;;;;;5032909;28;20420;-66
2022/10/03 11:06:01;;;;;;;4.40;2.40;;;14.60;99.90;;;;;;5036401;28;20471;-66
2022/10/03 11:08:42;;;;;;;9.07;2.73;;;14.30;99.90;;;;;;5038962;28;20423;-65
2022/10/03 11:11:29;;;;;;;5.10;2.60;;;14.10;99.90;;;;;;5027994;28;20461;-65
2022/10/03 11:14:27;;;;;;;7.73;3.40;;;13.80;99.90;;;;;;5027766;28;20961;-65
2022/10/03 11:17:14;;;;;;;7.23;3.20;;;13.50;99.90;;;;;;5025841;28;20504;-65
2022/10/03 11:20:33;;;;;;;8.80;3.67;;;13.30;99.90;;;;;;5030539;28;20487;-65
2022/10/03 11:23:08;;;;;;;6.60;3.60;;;13.20;99.90;;;;;;4944531;29;20447;-66
2022/10/03 11:25:57;;;;;;;8.50;3.10;;;13.20;99.90;;;;;;5031781;28;20438;-65
2022/10/03 11:28:33;;;;;;;5.50;3.70;;;13.20;99.90;;;;;;5026536;28;20560;-65
2022/10/03 11:31:10;;;;;;;7.53;4.03;;;13.30;99.90;;;;;;5027276;28;20446;-65
2022/10/03 11:33:48;;;;;;;11.57;3.70;;;13.40;99.90;;;;;;5031655;28;20436;-65
2022/10/03 11:36:13;;;;;;;7.47;2.67;;;13.70;99.90;;;;;;5031546;28;20475;-64
2022/10/03 11:39:01;;;;;;;6.53;3.20;;;14.00;99.90;;;;;;5037486;28;20436;-65
2022/10/03 11:42:11;;;;;;;4.17;2.43;;;14.40;99.90;;;;;;5024396;28;20321;-66
2022/10/03 11:44:54;;;;;;;3.87;2.23;;;14.40;99.90;;;;;;4949367;28;20469;-65
2022/10/03 11:47:41;;;;;;;8.27;2.50;;;14.40;99.90;;;;;;5030581;28;20867;-65
2022/10/03 11:50:34;;;;;;;10.00;2.63;;;14.60;99.90;;;;;;5031979;28;20433;-65
2022/10/03 11:53:15;;;;;;;7.73;2.23;;;14.50;99.90;;;;;;5035609;28;20433;-65
2022/10/03 11:55:44;;;;;;;7.63;2.37;;;14.60;99.90;;;;;;5016442;28;20461;-66
2022/10/03 11:59:01;;;;;;;3.87;2.00;;;14.70;99.90;;;;;;5035474;28;20463;-66
2022/10/03 12:01:38;;;;;;;6.70;1.83;;;14.80;99.50;;;;;;4980772;28;20467;-66
2022/10/03 12:04:22;;;;;;;4.50;2.50;;;15.00;99.90;;;;;;5037896;28;20472;-65
2022/10/03 12:10:11;;;;;;;6.20;2.23;;;14.80;99.90;;;;;;5027846;28;20436;-66
2022/10/03 12:12:50;;;;;;;13.40;3.20;;;14.80;99.90;;;;;;5032349;28;20450;-66
2022/10/03 12:15:29;;;;;;;5.03;2.80;;;14.50;99.90;;;;;;5037101;28;20440;-65
2022/10/03 12:18:19;;;;;;;6.57;3.10;;;14.50;99.90;;;;;;5037894;28;20440;-66
2022/10/03 12:21:08;;;;;;;4.10;2.77;;;14.40;99.90;;;;;;5033633;28;20429;-65
2022/10/03 12:24:04;;;;;;;13.67;2.87;;;14.40;99.90;;;;;;5024280;28;20501;-65
2022/10/03 12:27:02;;;;;;;6.33;3.07;;;14.30;99.90;;;;;;5033211;28;20424;-65
2022/10/03 12:29:31;;;;;;;11.67;2.67;;;14.30;99.90;;;;;;5026285;28;20551;-66
2022/10/03 12:32:18;;;;;;;7.03;3.30;;;14.20;99.90;;;;;;5035669;28;20449;-65
2022/10/03 12:35:13;;;;;;;4.10;2.30;;;14.20;99.90;;;;;;5031041;28;20590;-65
2022/10/03 12:37:53;;;;;;;4.43;2.90;;;14.10;99.90;;;;;;5033802;28;20472;-65
2022/10/03 12:40:30;;;;;;;4.50;2.07;;;14.10;99.90;;;;;;5036201;28;20442;-65
2022/10/03 12:43:42;;;;;;;8.20;2.73;;;14.20;99.90;;;;;;5036553;28;20437;-65
2022/10/03 12:46:40;;;;;;;5.83;2.50;;;14.40;99.90;;;;;;5020277;28;20501;-66
2022/10/03 12:49:50;;;;;;;4.63;2.33;;;14.50;99.90;;;;;;5040339;28;20923;-65
2022/10/03 12:52:26;;;;;;;4.63;2.37;;;15.00;99.90;;;;;;4940845;29;20535;-65
2022/10/03 12:55:18;;;;;;;5.50;3.20;;;15.20;99.90;;;;;;5033632;28;20489;-65
2022/10/03 12:57:49;;;;;;;9.43;3.07;;;15.40;99.90;;;;;;5025142;28;20923;-65
2022/10/03 13:00:19;;;;;;;5.60;3.13;;;15.60;99.90;;;;;;5047733;28;20421;-66
2022/10/03 13:03:07;;;;;;;5.97;3.40;;;16.10;97.90;;;;;;5044486;28;20459;-65
2022/10/03 13:05:57;;;;;;;7.00;3.13;;;16.50;99.90;;;;;;5032694;28;20432;-65
2022/10/03 13:08:41;;;;;;;7.27;3.50;;;16.50;99.90;;;;;;5039800;28;20897;-65
2022/10/03 13:11:24;;;;;;;8.30;3.50;;;16.60;99.90;;;;;;5036590;28;20847;-65
2022/10/03 13:14:38;;;;;;;5.23;2.80;;;16.70;99.90;;;;;;5036077;28;20495;-65
2022/10/03 13:17:19;;;;;;;4.87;2.40;;;16.40;99.90;;;;;;5012086;28;20480;-65
2022/10/03 13:19:53;;;;;;;4.50;2.93;;;15.80;99.90;;;;;;5038762;28;20424;-65
2022/10/03 13:22:42;;;;;;;6.17;3.10;;;15.70;99.90;;;;;;5039523;28;20783;-65
2022/10/03 13:25:15;;;;;;;7.53;3.50;;;15.20;99.90;;;;;;5032753;28;20429;-65
2022/10/03 13:27:51;;;;;;;6.23;3.00;;;14.90;99.90;;;;;;5047044;28;20419;-65
2022/10/03 13:30:29;;;;;;;5.67;1.90;;;14.60;99.90;;;;;;5033295;28;20416;-65
2022/10/03 13:33:14;;;;;;;4.67;2.80;;;14.50;99.90;;;;;;5049635;28;20784;-65
2022/10/03 13:36:01;;;;;;;5.90;2.30;;;14.60;99.90;;;;;;5037767;28;20582;-65
2022/10/03 13:38:36;;;;;;;9.47;3.40;;;14.70;99.90;;;;;;5033747;28;20443;-65
2022/10/03 13:41:19;;;;;;;4.80;2.70;;;14.70;99.90;;;;;;5053742;28;20486;-65
2022/10/03 13:43:50;;;;;;;15.13;2.93;;;14.60;99.90;;;;;;5052802;28;20416;-65
2022/10/03 13:46:43;;;;;;;8.77;2.73;;;14.60;99.90;;;;;;5035811;28;20432;-64
2022/10/03 13:49:31;;;;;;;6.47;2.30;;;14.60;99.90;;;;;;5011329;28;20444;-64
2022/10/03 13:52:01;;;;;;;4.30;2.53;;;14.70;99.90;;;;;;5036818;28;20749;-64
2022/10/03 13:54:54;;;;;;;4.23;2.07;;;14.70;99.90;;;;;;5029052;28;20449;-64
2022/10/03 13:57:25;;;;;;;4.37;2.10;;;14.80;99.90;;;;;;5038091;28;20476;-64
2022/10/03 13:59:51;;;;;;;6.00;2.20;;;14.80;99.90;;;;;;5027893;28;20441;-65
2022/10/03 14:02:40;;;;;;;6.50;2.87;;;14.90;99.90;;;;;;5026354;28;20951;-64
2022/10/03 14:05:28;;;;;;;5.20;1.90;;;14.90;99.90;;;;;;5031175;28;20551;-64
2022/10/03 14:08:03;;;;;;;4.00;2.40;;;15.00;99.90;;;;;;5032228;28;20471;-64
2022/10/03 14:10:47;;;;;;;12.57;1.83;;;15.10;99.90;;;;;;5036026;28;20419;-64
2022/10/03 14:13:42;;;;;;;8.23;2.00;;;14.90;99.90;;;;;;5052250;28;20454;-64
2022/10/03 14:16:20;;;;;;;5.87;3.10;;;14.90;99.90;;;;;;5024992;28;20874;-64
2022/10/03 14:18:55;;;;;;;4.70;2.40;;;14.90;99.90;;;;;;5046210;28;20428;-64
2022/10/03 14:21:43;;;;;;;9.00;2.60;;;14.90;99.90;;;;;;5026077;28;20426;-64
2022/10/03 14:24:15;;;;;;;2.40;1.67;;;14.90;99.90;;;;;;5039780;28;20420;-64
2022/10/03 14:27:19;;;;;;;4.17;2.13;;;15.00;99.90;;;;;;5032329;28;20801;-64
2022/10/03 14:30:06;;;;;;;6.33;2.87;;;15.20;99.80;;;;;;5030281;28;20536;-64
2022/10/03 14:32:57;;;;;;;10.20;2.30;;;15.10;99.70;;;;;;5022207;28;20511;-64
2022/10/03 14:35:40;;;;;;;4.03;2.00;;;14.90;99.70;;;;;;5031264;28;20487;-64